Time;durP1;ratioP1;P1;durP2;ratioP2;P2;SDS_P1;SDS_P2;PMS_P1;PMS_P2;Temp;Humidity;BMP_temperature;BMP_pressure;BME280_temperature;BME280_humidity;BME280_pressure;Samples;Min_cycle;Max_cycle;Signal;HPM_P1;HPM_P2
2021/11/06 00:01:32;;;;;;;6.05;2.33;;;;;;;12.39;72.32;101625.72;4980346;28;20050;-62
2021/11/06 00:04:16;;;;;;;;;;;;;;;12.42;72.41;101630.53;4981532;28;20037;-62
2021/11/06 00:07:01;;;;;;;2.83;1.83;;;;;;;12.40;72.71;101630.84;4975892;28;19914;-63
2021/11/06 00:09:46;;;;;;;6.03;1.65;;;;;;;12.38;72.39;101622.16;4979186;28;20053;-62
2021/11/06 00:12:31;;;;;;;;;;;;;;;12.38;72.79;101632.28;4977082;28;20045;-62
2021/11/06 00:15:15;;;;;;;3.55;1.65;;;;;;;12.36;70.61;101629.03;4979406;28;19914;-62
2021/11/06 00:18:00;;;;;;;;;;;;;;;12.36;70.73;101629.84;4986221;28;20049;-62
2021/11/06 00:20:44;;;;;;;5.80;2.10;;;;;;;12.34;71.13;101636.72;4981215;28;19914;-62
2021/11/06 00:23:30;;;;;;;3.53;1.88;;;;;;;12.33;71.74;101625.00;4975622;28;20053;-62
2021/11/06 00:26:14;;;;;;;5.70;1.85;;;;;;;12.34;72.43;101631.28;4966315;28;20419;-62
2021/11/06 00:28:59;;;;;;;;;;;;;;;12.34;72.80;101634.00;4989738;28;20054;-62
2021/11/06 00:31:44;;;;;;;4.05;1.67;;;;;;;12.33;72.75;101641.38;4995946;28;19914;-62
2021/11/06 00:34:29;;;;;;;4.95;1.17;;;;;;;12.33;72.79;101632.38;4994120;28;20057;-62
2021/11/06 00:37:14;;;;;;;;;;;;;;;12.32;72.76;101633.47;4983128;28;20037;-62
2021/11/06 00:39:58;;;;;;;2.42;1.42;;;;;;;12.30;72.73;101644.69;4984455;28;20395;-62
2021/11/06 00:42:45;;;;;;;3.65;1.60;;;;;;;12.30;72.03;101641.97;4982118;28;20122;-62
2021/11/06 00:45:29;;;;;;;2.92;1.48;;;;;;;12.27;72.27;101636.31;5007788;23;20057;-80
2021/11/06 00:48:14;;;;;;;2.80;1.48;;;;;;;12.24;72.71;101636.94;4990879;28;20067;-80
2021/11/06 00:50:59;;;;;;;3.95;1.98;;;;;;;12.26;72.61;101648.31;5000965;28;20045;-79
2021/11/06 00:53:46;;;;;;;;;;;;;;;12.26;72.53;101646.41;4998800;28;20053;-80
2021/11/06 00:56:31;;;;;;;4.60;2.17;;;;;;;12.24;72.69;101648.63;5023223;28;20403;-80
2021/11/06 00:59:15;;;;;;;2.20;0.98;;;;;;;12.19;71.19;101647.94;5021993;28;20053;-80
2021/11/06 01:02:01;;;;;;;;;;;;;;;12.20;69.21;101646.81;5020729;28;20057;-80
2021/11/06 01:04:45;;;;;;;6.53;1.17;;;;;;;12.19;71.14;101645.22;5017292;28;19913;-79
2021/11/06 01:07:30;;;;;;;;;;;;;;;12.19;70.75;101645.22;5015525;28;20408;-80
2021/11/06 01:10:16;;;;;;;5.30;1.80;;;;;;;12.18;71.29;101647.13;5011059;28;19914;-80
2021/11/06 01:13:00;;;;;;;1.90;1.23;;;;;;;12.17;72.20;101641.97;5003989;28;20053;-80
2021/11/06 01:15:45;;;;;;;1.30;0.85;;;;;;;12.16;72.47;101640.34;5016665;28;20049;-80
2021/11/06 01:18:30;;;;;;;1.35;0.60;;;;;;;12.12;69.54;101639.34;5006015;28;20071;-80
2021/11/06 01:21:15;;;;;;;3.08;1.13;;;;;;;12.12;71.50;101634.72;4998211;28;20049;-79
2021/11/06 01:24:00;;;;;;;3.03;1.45;;;;;;;12.15;72.54;101650.44;5006171;28;20118;-80
2021/11/06 01:26:45;;;;;;;1.58;0.80;;;;;;;12.14;71.80;101653.50;5023762;28;20049;-80
2021/11/06 01:29:30;;;;;;;1.70;0.93;;;;;;;12.16;72.28;101653.97;5002708;28;20049;-80
2021/11/06 01:32:15;;;;;;;1.30;0.70;;;;;;;12.13;72.71;101652.69;5021186;28;20052;-80
2021/11/06 01:35:01;;;;;;;1.92;0.80;;;;;;;12.12;72.77;101652.97;5002373;28;20044;-79
2021/11/06 01:37:46;;;;;;;1.45;0.80;;;;;;;12.12;71.63;101655.72;5018432;28;20048;-80
2021/11/06 01:40:30;;;;;;;1.02;0.57;;;;;;;12.10;72.42;101647.81;5022092;28;20057;-80
2021/11/06 01:43:16;;;;;;;2.47;0.80;;;;;;;12.11;71.74;101645.91;5019049;28;20053;-80
2021/11/06 01:46:06;;;;;;;0.70;0.70;;;;;;;12.04;65.73;101650.97;5016838;28;20045;-80
2021/11/06 01:48:52;;;;;;;0.68;0.52;;;;;;;11.99;64.59;101646.41;5019747;28;20060;-79
2021/11/06 01:51:36;;;;;;;1.30;0.88;;;;;;;12.03;69.34;101638.44;5019795;28;20060;-79
2021/11/06 01:54:25;;;;;;;1.70;1.05;;;;;;;12.00;67.63;101642.56;5008408;28;20053;-79
2021/11/06 01:57:10;;;;;;;3.22;0.88;;;;;;;12.04;69.91;101649.03;5016652;28;20523;-79
2021/11/06 01:59:55;;;;;;;2.85;0.90;;;;;;;12.03;70.77;101650.16;5023475;28;20056;-79
2021/11/06 02:02:41;;;;;;;;;;;;;;;12.03;70.61;101646.63;5018819;28;20052;-79
2021/11/06 02:05:26;;;;;;;1.02;0.60;;;;;;;12.02;71.38;101650.44;4999692;28;19914;-79
2021/11/06 02:08:13;;;;;;;3.90;0.90;;;;;;;12.02;71.50;101653.19;5019167;28;20057;-81
2021/11/06 02:10:58;;;;;;;2.28;1.00;;;;;;;12.00;69.81;101656.19;5017463;28;20053;-82
2021/11/06 02:13:44;;;;;;;3.90;0.75;;;;;;;12.00;70.69;101653.47;5012241;28;20156;-80
2021/11/06 02:16:29;;;;;;;1.85;0.90;;;;;;;11.99;70.39;101658.09;5020037;28;20073;-81
2021/11/06 02:19:14;;;;;;;2.22;0.90;;;;;;;11.98;71.71;101658.44;5018394;28;20049;-81
2021/11/06 02:22:01;;;;;;;1.88;0.70;;;;;;;11.97;68.72;101659.53;5020899;28;20423;-78
2021/11/06 02:24:45;;;;;;;1.70;0.70;;;;;;;11.96;70.66;101663.38;5018421;28;20049;-78
2021/11/06 02:27:30;;;;;;;1.70;0.80;;;;;;;11.93;69.64;101653.88;5014156;28;20048;-81
2021/11/06 02:30:16;;;;;;;2.10;0.70;;;;;;;11.94;71.29;101658.19;5022687;28;20049;-81
2021/11/06 02:33:02;;;;;;;1.33;0.60;;;;;;;11.93;69.35;101658.53;5011645;28;20061;-81
2021/11/06 02:35:47;;;;;;;1.23;0.65;;;;;;;11.92;70.29;101656.91;5017045;28;20100;-81
2021/11/06 02:38:32;;;;;;;1.30;0.60;;;;;;;11.92;70.78;101651.44;5002426;28;20515;-81
2021/11/06 02:41:17;;;;;;;0.82;0.70;;;;;;;11.92;71.77;101651.44;5003196;28;20061;-81
2021/11/06 02:44:07;;;;;;;1.13;0.35;;;;;;;11.92;72.21;101655.00;5013703;28;20053;-81
2021/11/06 02:46:52;;;;;;;1.27;0.63;;;;;;;11.91;72.11;101653.38;5015781;28;20515;-80
2021/11/06 02:49:36;;;;;;;0.45;0.45;;;;;;;11.92;72.00;101663.16;5020704;28;20052;-82
2021/11/06 02:52:21;;;;;;;0.73;0.55;;;;;;;11.93;72.00;101656.59;5009934;28;20045;-81
2021/11/06 02:55:06;;;;;;;1.10;0.60;;;;;;;11.91;71.62;101655.28;5001503;28;20048;-80
2021/11/06 02:57:51;;;;;;;;;;;;;;;11.92;72.04;101655.00;5019468;28;20061;-81
2021/11/06 03:00:36;;;;;;;0.70;0.50;;;;;;;11.90;72.33;101651.75;5020819;28;19913;-81
2021/11/06 03:03:21;;;;;;;0.90;0.73;;;;;;;11.91;72.48;101656.09;5015708;28;20049;-81
2021/11/06 03:06:06;;;;;;;0.60;0.40;;;;;;;11.90;72.41;101659.91;5019444;28;20061;-81
2021/11/06 03:08:51;;;;;;;1.13;0.50;;;;;;;11.89;71.19;101665.66;5018044;28;20515;-82
2021/11/06 03:11:38;;;;;;;0.82;0.40;;;;;;;11.90;71.72;101670.81;5013725;28;20057;-81
2021/11/06 03:14:23;;;;;;;2.85;0.40;;;;;;;11.88;71.69;101673.06;5000160;28;20449;-80
2021/11/06 03:17:09;;;;;;;1.48;0.30;;;;;;;11.79;63.57;101677.56;4997637;28;20057;-80
2021/11/06 03:19:54;;;;;;;0.60;0.40;;;;;;;11.82;68.24;101673.44;5005253;28;20053;-80
2021/11/06 03:22:40;;;;;;;;;;;;;;;11.85;69.82;101673.63;5020434;28;20424;-81
2021/11/06 03:25:27;;;;;;;2.08;0.55;;;;;;;11.79;65.24;101685.72;5013543;28;19913;-81
2021/11/06 03:28:12;;;;;;;0.88;0.50;;;;;;;11.79;67.00;101685.72;5015087;28;20041;-81
2021/11/06 03:30:57;;;;;;;;;;;;;;;11.73;62.10;101688.88;5019560;28;20428;-81
2021/11/06 03:33:42;;;;;;;0.63;0.60;;;;;;;11.77;67.00;101692.59;5016891;28;19913;-81
2021/11/06 03:36:27;;;;;;;0.75;0.38;;;;;;;11.72;63.75;101689.94;5015766;28;20045;-81
2021/11/06 03:39:12;;;;;;;0.40;0.40;;;;;;;11.67;60.91;101692.75;5019104;28;20309;-81
2021/11/06 03:41:57;;;;;;;0.70;0.40;;;;;;;11.72;66.17;101689.94;5020691;28;20056;-81
2021/11/06 03:44:42;;;;;;;0.52;0.30;;;;;;;11.65;61.28;101693.03;4996610;28;20536;-81
2021/11/06 03:47:27;;;;;;;1.10;0.45;;;;;;;11.67;64.19;101704.47;5001966;28;20065;-81
2021/11/06 03:50:11;;;;;;;;;;;;;;;11.71;66.51;101713.66;4999324;28;20597;-81
2021/11/06 03:52:56;;;;;;;0.73;0.47;;;;;;;11.71;67.73;101704.66;5015963;28;19913;-81
2021/11/06 03:55:41;;;;;;;;;;;;;;;11.74;69.37;101715.78;5014165;28;20064;-81
2021/11/06 03:58:26;;;;;;;0.60;0.43;;;;;;;11.71;69.11;101712.84;5011758;28;19917;-81
2021/11/06 04:01:11;;;;;;;1.15;0.50;;;;;;;11.72;70.17;101726.16;5014852;28;20065;-81
2021/11/06 04:03:56;;;;;;;0.65;0.40;;;;;;;11.72;70.17;101720.72;5014889;28;20053;-81
2021/11/06 04:06:41;;;;;;;0.70;0.40;;;;;;;11.69;68.80;101726.75;5017722;28;20526;-81
2021/11/06 04:09:25;;;;;;;0.82;0.45;;;;;;;11.70;69.75;101728.38;5021605;28;20061;-81
2021/11/06 04:12:10;;;;;;;0.55;0.35;;;;;;;11.70;70.61;101731.09;5013263;28;20068;-80
2021/11/06 04:14:55;;;;;;;1.27;0.28;;;;;;;11.70;70.51;101731.09;5016276;28;20049;-81
2021/11/06 04:17:41;;;;;;;0.30;0.30;;;;;;;11.69;69.94;101732.19;5020722;28;20053;-81
2021/11/06 04:20:25;;;;;;;;;;;;;;;11.69;70.31;101726.75;5021092;28;20052;-81
2021/11/06 04:23:10;;;;;;;0.45;0.40;;;;;;;11.66;68.08;101729.25;5017240;28;19921;-81
2021/11/06 04:25:56;;;;;;;0.40;0.20;;;;;;;11.63;67.92;101735.31;5018841;28;20068;-81
2021/11/06 04:28:41;;;;;;;0.55;0.40;;;;;;;11.63;69.24;101738.81;5014379;28;20064;-82
2021/11/06 04:31:26;;;;;;;0.30;0.25;;;;;;;11.63;68.83;101744.28;5018020;28;20049;-80
2021/11/06 04:34:11;;;;;;;0.77;0.38;;;;;;;11.57;64.75;101740.03;5008859;28;20056;-81
2021/11/06 04:36:56;;;;;;;0.55;0.30;;;;;;;11.58;66.27;101742.44;5014352;28;20056;-81
2021/11/06 04:39:41;;;;;;;0.57;0.40;;;;;;;11.59;67.98;101743.25;5018784;28;20064;-81
2021/11/06 04:42:26;;;;;;;;;;;;;;;11.58;68.77;101750.63;5017499;28;20061;-81
2021/11/06 04:45:12;;;;;;;0.93;0.50;;;;;;;11.56;69.17;101752.84;5010969;28;19913;-81
2021/11/06 04:47:57;;;;;;;4.45;0.30;;;;;;;11.54;69.56;101738.69;5013419;28;20042;-81
2021/11/06 04:50:42;;;;;;;0.40;0.30;;;;;;;11.46;64.99;101744.03;4997651;28;20057;-81
2021/11/06 04:53:27;;;;;;;;;;;;;;;11.53;66.85;101750.69;5002310;28;20049;-81
2021/11/06 04:56:11;;;;;;;0.40;0.40;;;;;;;11.53;68.33;101752.59;5018108;28;20295;-81
2021/11/06 04:58:56;;;;;;;;;;;;;;;11.53;69.90;101755.34;5017383;28;20049;-81
2021/11/06 05:01:41;;;;;;;2.53;0.50;;;;;;;11.52;70.49;101759.19;5021103;28;19999;-81
2021/11/06 05:04:26;;;;;;;;;;;;;;;11.54;70.98;101756.97;5012047;28;20069;-81
2021/11/06 05:07:11;;;;;;;1.27;0.50;;;;;;;11.53;71.47;101764.31;5014361;28;20323;-80
2021/11/06 05:09:56;;;;;;;0.40;0.32;;;;;;;11.53;71.61;101763.50;5018137;28;20053;-81
2021/11/06 05:12:41;;;;;;;0.60;0.30;;;;;;;11.52;71.79;101757.28;5017724;28;20072;-80
2021/11/06 05:15:26;;;;;;;1.05;0.32;;;;;;;11.48;69.42;101752.69;5013627;28;20527;-81
2021/11/06 05:18:13;;;;;;;0.30;0.20;;;;;;;11.47;69.57;101749.19;5013561;28;20056;-81
2021/11/06 05:20:58;;;;;;;0.30;0.30;;;;;;;11.49;71.10;101754.31;5018139;28;20053;-81
2021/11/06 05:23:43;;;;;;;4.03;0.50;;;;;;;11.46;68.82;101755.72;5015179;28;20049;-81
2021/11/06 05:26:28;;;;;;;0.90;0.30;;;;;;;11.46;69.31;101765.81;5019781;28;20037;-80
2021/11/06 05:29:12;;;;;;;;;;;;;;;11.37;63.64;101764.88;5019940;28;20286;-81
2021/11/06 05:31:57;;;;;;;0.45;0.40;;;;;;;11.42;67.00;101764.78;5016746;28;19913;-81
2021/11/06 05:34:42;;;;;;;;;;;;;;;11.44;70.33;101759.84;5014406;28;20053;-81
2021/11/06 05:37:27;;;;;;;0.85;0.50;;;;;;;11.42;70.21;101770.22;5005303;28;19918;-81
2021/11/06 05:40:13;;;;;;;0.82;0.40;;;;;;;11.45;71.48;101773.16;5012965;28;20732;-80
2021/11/06 05:42:58;;;;;;;0.98;0.50;;;;;;;11.46;71.69;101779.44;5017651;28;20416;-80
2021/11/06 05:45:42;;;;;;;0.22;0.22;;;;;;;11.45;71.73;101778.63;5016497;28;20061;-81
2021/11/06 05:48:27;;;;;;;0.70;0.30;;;;;;;11.43;71.26;101777.28;5012680;28;20049;-81
2021/11/06 05:51:12;;;;;;;0.73;0.40;;;;;;;11.43;71.64;101775.38;5018911;28;20049;-81
2021/11/06 05:53:57;;;;;;;;;;;;;;;11.44;72.02;101776.19;5022182;28;20053;-81
2021/11/06 05:56:42;;;;;;;0.85;0.43;;;;;;;11.43;71.94;101774.56;5015628;28;19913;-81
2021/11/06 05:59:27;;;;;;;1.00;0.30;;;;;;;11.43;72.18;101777.28;5017274;28;20679;-81
2021/11/06 06:02:12;;;;;;;1.27;0.30;;;;;;;11.43;72.41;101790.91;5021732;28;20057;-81
2021/11/06 06:04:57;;;;;;;1.52;0.55;;;;;;;11.41;72.13;101783.03;5017512;28;20088;-81
2021/11/06 06:07:42;;;;;;;;;;;;;;;11.42;72.27;101794.75;5013256;28;20049;-80
2021/11/06 06:10:27;;;;;;;1.00;0.75;;;;;;;11.36;69.36;101790.47;5003176;28;19913;-81
2021/11/06 06:13:11;;;;;;;0.50;0.50;;;;;;;11.39;71.15;101793.41;5001126;28;20053;-81
2021/11/06 06:15:56;;;;;;;0.30;0.30;;;;;;;11.38;71.39;101799.13;5002340;28;20046;-80
2021/11/06 06:18:45;;;;;;;;;;;;;;;11.27;63.14;101803.13;5019505;28;20049;-82
2021/11/06 06:21:30;;;;;;;0.65;0.65;;;;;;;11.29;66.91;101809.06;5013988;28;19913;-81
2021/11/06 06:24:14;;;;;;;1.10;0.40;;;;;;;11.31;69.75;101806.88;4999090;28;20421;-81
2021/11/06 06:26:59;;;;;;;;;;;;;;;11.30;69.63;101805.25;5006162;28;20551;-82
2021/11/06 06:29:44;;;;;;;3.10;0.75;;;;;;;11.21;63.81;101810.56;5012078;28;19914;-81
2021/11/06 06:32:29;;;;;;;;;;;;;;;11.26;68.61;101815.13;5031048;28;20052;-81
2021/11/06 06:35:15;;;;;;;0.73;0.40;;;;;;;11.26;69.41;101815.13;5011205;28;19918;-81
2021/11/06 06:38:01;;;;;;;1.17;0.60;;;;;;;11.22;66.61;101827.69;5021461;28;20064;-82
2021/11/06 06:40:46;;;;;;;8.02;1.50;;;;;;;11.06;58.07;101825.16;5004003;28;20053;-81
2021/11/06 06:43:30;;;;;;;9.05;2.30;;;;;;;11.06;59.76;101829.81;5020564;28;20053;-81
2021/11/06 06:46:15;;;;;;;5.32;0.90;;;;;;;11.05;58.75;101830.91;5014634;23;20061;-78
2021/11/06 06:49:00;;;;;;;0.88;0.85;;;;;;;11.06;63.03;101822.44;4999290;28;20049;-78
2021/11/06 06:51:45;;;;;;;5.03;2.92;;;;;;;11.01;58.25;101838.84;4997113;28;20061;-78
2021/11/06 06:54:30;;;;;;;1.73;0.98;;;;;;;11.08;63.19;101846.63;4997684;28;20049;-77
2021/11/06 06:57:15;;;;;;;0.50;0.40;;;;;;;11.12;67.30;101845.75;5007351;28;20054;-76
2021/11/06 07:00:00;;;;;;;1.50;0.60;;;;;;;11.12;66.71;101845.75;4999133;28;20045;-77
2021/11/06 07:02:45;;;;;;;3.75;1.15;;;;;;;11.15;66.89;101847.91;4993780;28;20049;-77
2021/11/06 07:05:30;;;;;;;;;;;;;;;11.11;62.53;101855.03;4990053;28;20041;-78
2021/11/06 07:08:14;;;;;;;3.47;1.30;;;;;;;11.12;63.73;101850.41;5001858;28;19913;-77
2021/11/06 07:10:59;;;;;;;;;;;;;;;11.15;67.60;101856.09;5000182;28;20125;-78
2021/11/06 07:13:45;;;;;;;4.70;1.65;;;;;;;11.09;62.56;101854.50;4997808;28;20284;-78
2021/11/06 07:16:30;;;;;;;6.68;1.50;;;;;;;11.17;67.17;101857.72;5001103;28;20049;-78
2021/11/06 07:19:15;;;;;;;10.18;2.45;;;;;;;11.14;64.90;101867.25;4997468;28;20053;-77
2021/11/06 07:22:00;;;;;;;;;;;;;;;11.12;64.29;101872.97;4997175;28;20100;-78
2021/11/06 07:24:45;;;;;;;4.32;1.60;;;;;;;11.15;66.86;101866.97;4999571;28;19914;-77
2021/11/06 07:27:31;;;;;;;15.70;1.77;;;;;;;11.14;66.01;101881.69;4997956;28;20045;-77
2021/11/06 07:30:17;;;;;;;8.93;1.70;;;;;;;11.12;65.22;101877.63;4997180;28;20049;-77
2021/11/06 07:33:02;;;;;;;17.05;2.55;;;;;;;11.15;67.37;101877.88;4997696;28;20049;-80
2021/11/06 07:35:47;;;;;;;6.60;2.03;;;;;;;11.17;68.45;101884.94;5004106;28;20053;-81
2021/11/06 07:38:34;;;;;;;10.10;1.35;;;;;;;11.14;65.64;101880.88;4989831;28;20042;-81
2021/11/06 07:41:20;;;;;;;4.90;1.60;;;;;;;11.08;59.71;101888.28;4988334;28;20041;-79
2021/11/06 07:44:05;;;;;;;10.32;2.67;;;;;;;11.06;56.88;101885.06;4997662;28;20054;-79
2021/11/06 07:46:49;;;;;;;7.93;2.10;;;;;;;11.04;56.12;101887.25;4974690;28;20057;-78
2021/11/06 07:49:34;;;;;;;6.53;1.02;;;;;;;10.98;56.37;101882.13;4980164;28;20057;-79
2021/11/06 07:52:19;;;;;;;4.30;2.50;;;;;;;11.02;57.71;101889.44;4976077;28;20419;-79
2021/11/06 07:55:04;;;;;;;7.38;1.77;;;;;;;11.03;56.26;101882.06;4976468;28;20555;-79
2021/11/06 07:57:49;;;;;;;8.00;2.55;;;;;;;11.00;55.50;101891.66;4980802;28;20054;-77
2021/11/06 08:00:34;;;;;;;13.73;1.70;;;;;;;11.02;56.91;101894.09;4961144;28;20054;-80
2021/11/06 08:03:19;;;;;;;;;;;;;;;11.05;59.46;101896.22;4978880;28;20551;-79
2021/11/06 08:06:05;;;;;;;5.47;1.95;;;;;;;11.09;61.57;101894.53;4975103;28;19914;-78
2021/11/06 08:08:50;;;;;;;5.38;1.17;;;;;;;11.13;64.50;101890.94;4977629;28;20050;-80
2021/11/06 08:11:35;;;;;;;3.83;0.95;;;;;;;11.14;65.83;101892.56;4976401;28;20066;-80
2021/11/06 08:14:20;;;;;;;;;;;;;;;11.18;66.80;101891.97;4974758;28;20050;-81
2021/11/06 08:17:04;;;;;;;3.15;1.30;;;;;;;11.17;65.77;101890.38;4978051;28;19914;-79
2021/11/06 08:19:50;;;;;;;4.25;1.20;;;;;;;11.17;63.86;101890.38;4975861;28;20049;-77
2021/11/06 08:22:36;;;;;;;5.07;2.20;;;;;;;11.11;59.24;101898.59;4971419;28;20049;-78
2021/11/06 08:25:22;;;;;;;7.65;2.00;;;;;;;11.12;57.88;101893.97;4975788;28;20053;-78
2021/11/06 08:28:09;;;;;;;6.70;1.88;;;;;;;11.13;58.20;101896.38;4975928;28;20555;-76
2021/11/06 08:30:54;;;;;;;5.45;2.03;;;;;;;11.13;56.77;101895.56;4969421;28;20421;-75
2021/11/06 08:33:39;;;;;;;3.47;1.10;;;;;;;11.14;58.84;101897.19;4970649;28;20042;-76
2021/11/06 08:36:24;;;;;;;3.83;1.15;;;;;;;11.15;59.50;101894.19;4961195;28;20061;-76
2021/11/06 08:39:08;;;;;;;;;;;;;;;11.20;61.09;101900.69;4966103;28;20050;-77
2021/11/06 08:41:57;;;;;;;2.47;1.25;;;;;;;11.23;62.25;101897.38;4973381;28;19918;-76
2021/11/06 08:44:42;;;;;;;2.40;1.77;;;;;;;11.24;62.84;101893.53;4975305;28;20050;-78
2021/11/06 08:47:27;;;;;;;3.38;0.63;;;;;;;11.23;63.63;101881.84;4998448;28;20049;-77
2021/11/06 08:50:16;;;;;;;4.10;1.08;;;;;;;11.26;64.14;101883.19;5016182;28;20412;-77
2021/11/06 08:53:01;;;;;;;3.13;1.58;;;;;;;11.24;65.11;101869.03;5013376;28;20531;-77
2021/11/06 08:55:46;;;;;;;;;;;;;;;11.28;65.89;101886.41;4994425;28;20049;-77
2021/11/06 08:58:32;;;;;;;7.82;1.05;;;;;;;11.28;64.68;101881.78;4996758;28;19917;-77
2021/11/06 09:01:17;;;;;;;2.08;0.82;;;;;;;11.30;65.48;101878.78;4995701;28;20045;-77
2021/11/06 09:04:02;;;;;;;5.75;1.10;;;;;;;11.30;65.03;101878.78;4993159;28;20061;-77
2021/11/06 09:06:47;;;;;;;2.03;0.70;;;;;;;11.31;65.54;101874.94;4977946;28;20053;-77
2021/11/06 09:09:32;;;;;;;2.00;0.90;;;;;;;11.35;65.83;101886.88;4979658;28;20054;-77
2021/11/06 09:12:17;;;;;;;4.75;0.93;;;;;;;11.35;66.85;101879.53;4977412;28;20049;-76
2021/11/06 09:15:02;;;;;;;2.80;0.60;;;;;;;11.38;67.41;101883.56;4996361;28;20428;-76
2021/11/06 09:17:50;;;;;;;5.63;1.23;;;;;;;11.41;66.39;101883.81;5011341;28;20056;-77
2021/11/06 09:20:35;;;;;;;3.55;0.90;;;;;;;11.40;66.24;101875.91;4978402;28;20054;-77
2021/11/06 09:23:20;;;;;;;0.98;0.52;;;;;;;11.44;67.05;101879.66;4981860;28;20058;-77
2021/11/06 09:26:05;;;;;;;3.28;0.70;;;;;;;11.45;65.53;101876.66;4977767;28;20413;-78
2021/11/06 09:28:50;;;;;;;3.40;0.82;;;;;;;11.47;67.82;101882.66;4978370;28;20050;-76
2021/11/06 09:31:35;;;;;;;2.35;0.70;;;;;;;11.50;67.45;101882.03;4981584;28;20045;-75
2021/11/06 09:34:20;;;;;;;2.33;0.50;;;;;;;11.48;68.08;101876.06;4979571;28;20062;-75
2021/11/06 09:37:05;;;;;;;;;;;;;;;11.53;68.74;101880.63;4978075;28;20042;-76
2021/11/06 09:39:50;;;;;;;1.90;0.70;;;;;;;11.54;67.60;101879.53;4981416;28;19918;-76
2021/11/06 09:42:39;;;;;;;1.20;0.50;;;;;;;11.53;64.89;101884.19;4981435;28;20405;-77
2021/11/06 09:45:23;;;;;;;1.55;0.70;;;;;;;11.53;65.37;101875.19;4977431;28;20054;-76
2021/11/06 09:48:08;;;;;;;1.35;0.40;;;;;;;11.55;65.86;101879.25;4981314;28;20070;-77
2021/11/06 09:50:58;;;;;;;1.85;1.05;;;;;;;11.61;66.66;101881.91;4997938;28;20053;-76
2021/11/06 09:53:45;;;;;;;0.85;0.63;;;;;;;11.61;67.89;101874.56;4998280;28;20045;-76
2021/11/06 09:56:30;;;;;;;3.53;1.58;;;;;;;11.64;68.64;101881.31;4989831;28;20049;-76
2021/11/06 09:59:15;;;;;;;2.63;0.75;;;;;;;11.66;68.95;101882.66;5006071;28;20042;-77
2021/11/06 10:02:00;;;;;;;5.05;1.17;;;;;;;11.69;68.84;101879.34;4996654;28;20045;-76
2021/11/06 10:04:45;;;;;;;5.25;0.90;;;;;;;11.69;68.43;101878.50;4998585;28;20044;-77
2021/11/06 10:07:31;;;;;;;1.65;0.70;;;;;;;11.71;68.97;101882.59;5011131;28;20421;-77
2021/11/06 10:10:17;;;;;;;3.40;0.85;;;;;;;11.74;67.65;101883.94;4992599;28;20046;-78
2021/11/06 10:13:02;;;;;;;3.63;0.82;;;;;;;11.76;66.06;101887.19;5003566;28;20045;-78
2021/11/06 10:15:49;;;;;;;4.78;0.70;;;;;;;11.78;66.54;101883.06;4994502;28;20045;-79
2021/11/06 10:18:34;;;;;;;3.58;0.70;;;;;;;11.78;67.60;101880.34;4996137;28;20053;-78
2021/11/06 10:21:24;;;;;;;;;;;;;;;11.81;68.23;101879.75;4995775;28;20045;-78
2021/11/06 10:24:09;;;;;;;0.82;0.60;;;;;;;11.83;68.54;101879.47;5000479;28;19913;-78
2021/11/06 10:26:53;;;;;;;1.73;0.50;;;;;;;11.81;67.28;101877.03;4998382;28;20045;-78
2021/11/06 10:29:39;;;;;;;1.38;0.57;;;;;;;11.84;66.85;101879.13;4996437;28;20053;-78
2021/11/06 10:32:24;;;;;;;2.65;0.75;;;;;;;11.88;67.43;101879.38;5003133;28;20126;-79
2021/11/06 10:35:20;;;;;;;4.07;0.93;;;;;;;11.90;68.17;101872.50;4998362;28;20057;-78
2021/11/06 10:38:15;;;;;;;2.05;0.80;;;;;;;11.95;69.42;101874.34;5002194;28;20073;-81
2021/11/06 10:41:07;;;;;;;1.08;0.90;;;;;;;11.96;69.78;101863.16;4999740;28;20052;-78
2021/11/06 10:43:51;;;;;;;2.92;0.95;;;;;;;11.96;70.15;101854.97;4997197;28;20332;-78
2021/11/06 10:46:37;;;;;;;;;;;;;;;12.00;70.94;101853.28;5001255;28;20400;-77
2021/11/06 10:49:31;;;;;;;2.63;1.08;;;;;;;12.03;71.13;101846.44;5001855;28;20306;-78
2021/11/06 10:52:19;;;;;;;1.02;0.80;;;;;;;12.05;71.46;101846.13;4995877;28;20145;-79
2021/11/06 10:55:08;;;;;;;1.10;0.60;;;;;;;12.03;71.85;101845.63;4997751;28;20053;-78
2021/11/06 10:57:52;;;;;;;1.92;0.90;;;;;;;12.03;71.37;101838.25;4997730;28;20420;-82
2021/11/06 11:00:46;;;;;;;3.35;0.70;;;;;;;12.07;71.45;101835.75;4995767;28;20053;-77
2021/11/06 11:03:34;;;;;;;6.33;1.10;;;;;;;12.08;71.74;101821.00;4993773;28;20451;-79
2021/11/06 11:06:27;;;;;;;2.47;1.15;;;;;;;12.13;72.26;101829.09;4995037;28;20284;-77
2021/11/06 11:09:25;;;;;;;2.38;0.57;;;;;;;12.15;71.35;101816.78;4994531;28;20041;-77
2021/11/06 11:12:17;;;;;;;4.30;1.00;;;;;;;12.17;70.50;101824.66;5008803;28;20045;-76
2021/11/06 11:15:02;;;;;;;1.40;0.85;;;;;;;12.17;71.08;101821.94;5014750;28;20076;-78
2021/11/06 11:17:47;;;;;;;4.57;0.60;;;;;;;12.15;70.42;101822.22;4996840;28;20118;-76
2021/11/06 11:20:36;;;;;;;2.78;0.60;;;;;;;12.18;70.46;101821.66;4994645;28;20049;-77
2021/11/06 11:23:24;;;;;;;2.40;0.75;;;;;;;12.21;70.17;101828.41;4991150;28;20049;-76
2021/11/06 11:26:09;;;;;;;3.70;0.68;;;;;;;12.22;67.54;101824.56;4986467;28;20049;-75
2021/11/06 11:28:55;;;;;;;2.25;0.47;;;;;;;12.24;69.97;101816.91;4986429;28;20057;-77
2021/11/06 11:31:41;;;;;;;1.45;0.70;;;;;;;12.26;70.01;101820.94;4991681;28;20069;-75
2021/11/06 11:34:26;;;;;;;3.20;0.63;;;;;;;12.26;68.83;101815.50;4985646;28;20050;-77
2021/11/06 11:37:13;;;;;;;1.42;0.50;;;;;;;12.30;69.40;101812.97;4987203;28;20069;-77
2021/11/06 11:40:00;;;;;;;1.92;0.60;;;;;;;12.33;69.30;101818.66;4997156;28;20053;-75
2021/11/06 11:43:26;;;;;;;4.60;0.70;;;;;;;12.38;69.56;101817.75;4996078;28;20065;-76
2021/11/06 11:46:18;;;;;;;0.63;0.50;;;;;;;12.39;69.38;101813.91;4990522;28;20049;-77
2021/11/06 11:49:07;;;;;;;1.33;0.60;;;;;;;12.41;69.46;101809.78;5000159;28;20303;-76
2021/11/06 11:51:51;;;;;;;5.82;0.85;;;;;;;12.44;68.67;101802.91;4990545;28;20048;-77
2021/11/06 11:55:17;;;;;;;;;;;;;;;12.50;68.67;101803.59;4998269;28;20053;-76
2021/11/06 11:58:06;;;;;;;4.18;0.60;;;;;;;12.51;68.71;101806.03;4912676;29;20417;-77
2021/11/06 12:00:55;;;;;;;4.72;1.67;;;;;;;12.55;68.89;101800.78;4997444;28;20045;-77
2021/11/06 12:03:46;;;;;;;0.90;0.63;;;;;;;12.55;69.56;101789.88;4995491;28;20424;-74
2021/11/06 12:06:36;;;;;;;5.57;0.70;;;;;;;12.57;69.62;101783.00;4992433;28;20057;-77
2021/11/06 12:09:24;;;;;;;2.53;0.38;;;;;;;12.61;69.35;101778.56;4996996;28;20041;-78
2021/11/06 12:12:08;;;;;;;1.63;0.50;;;;;;;12.64;69.15;101766.25;4995309;28;20057;-78
2021/11/06 12:14:53;;;;;;;6.00;0.98;;;;;;;13.19;68.43;101775.22;4997592;28;20523;-74
2021/11/06 12:17:37;;;;;;;0.77;0.40;;;;;;;13.67;60.87;101768.06;4996560;28;20049;-73
2021/11/06 12:20:24;;;;;;;2.80;0.70;;;;;;;14.11;57.64;101761.81;4994348;28;20063;-77
2021/11/06 12:23:30;;;;;;;2.63;1.20;;;;;;;14.30;56.84;101752.53;4997870;28;20057;-77
2021/11/06 12:26:26;;;;;;;7.65;0.73;;;;;;;14.53;55.94;101763.13;4992978;28;20049;-77
2021/11/06 12:29:11;;;;;;;4.63;0.77;;;;;;;14.58;53.65;101761.41;4993084;28;20110;-78
2021/11/06 12:32:08;;;;;;;6.95;0.85;;;;;;;14.60;53.22;101751.75;4997025;28;20515;-77
2021/11/06 12:34:55;;;;;;;2.35;0.70;;;;;;;14.63;52.32;101751.09;4994405;28;20519;-78
2021/11/06 12:37:45;;;;;;;1.27;0.77;;;;;;;14.78;53.08;101750.66;4992463;28;20397;-78
2021/11/06 12:40:36;;;;;;;2.05;0.85;;;;;;;14.74;52.31;101737.91;4995892;28;20049;-77
2021/11/06 12:43:29;;;;;;;2.92;0.60;;;;;;;14.89;51.12;101740.22;4994547;28;20069;-76
2021/11/06 12:46:23;;;;;;;2.97;1.27;;;;;;;15.01;52.97;101743.16;4985781;28;20049;-77
2021/11/06 12:49:09;;;;;;;7.20;1.73;;;;;;;15.17;52.50;101733.34;4989707;28;20041;-77
2021/11/06 12:51:54;;;;;;;3.30;2.03;;;;;;;15.59;50.53;101725.47;4998757;28;20301;-76
2021/11/06 12:54:39;;;;;;;;;;;;;;;16.10;49.58;101728.09;4998781;28;20062;-76
2021/11/06 12:57:47;;;;;;;2.55;1.05;;;;;;;16.44;48.10;101727.19;4999559;28;20380;-75
2021/11/06 13:00:35;;;;;;;2.72;0.90;;;;;;;16.89;46.46;101721.97;4993162;28;20053;-76
2021/11/06 13:03:40;;;;;;;2.92;0.55;;;;;;;16.88;46.04;101719.53;4985392;28;20046;-76